Time;durP1;ratioP1;P1;durP2;ratioP2;P2;SDS_P1;SDS_P2;PMS_P1;PMS_P2;Temp;Humidity;BMP_temperature;BMP_pressure;BME280_temperature;BME280_humidity;BME280_pressure;Samples;Min_cycle;Max_cycle;Signal;HPM_P1;HPM_P2
2022/01/01 00:02:13;;;;;;;12.63;7.68;;;9.90;99.90;;;;;;5092987;28;20430;-51
2022/01/01 00:04:40;;;;;;;9.45;7.60;;;10.10;99.90;;;;;;5093251;28;20024;-51
2022/01/01 00:07:05;;;;;;;13.55;9.70;;;10.20;99.90;;;;;;5093050;28;20016;-50
2022/01/01 00:09:31;;;;;;;9.82;6.68;;;10.20;99.90;;;;;;5093461;28;20089;-52
2022/01/01 00:11:57;;;;;;;9.02;5.97;;;10.20;99.90;;;;;;5092887;28;20032;-50
2022/01/01 00:14:23;;;;;;;7.50;5.70;;;10.30;99.90;;;;;;5093629;28;20028;-51
2022/01/01 00:16:48;;;;;;;11.43;5.53;;;10.30;99.90;;;;;;5093651;28;20037;-50
2022/01/01 00:19:15;;;;;;;8.98;5.80;;;10.40;99.90;;;;;;5093515;28;20587;-51
2022/01/01 00:21:41;;;;;;;8.18;5.78;;;10.40;99.90;;;;;;5093465;28;20024;-52
2022/01/01 00:24:07;;;;;;;5.90;4.38;;;10.50;99.90;;;;;;5093442;28;20027;-50
2022/01/01 00:26:33;;;;;;;4.45;3.85;;;10.70;99.90;;;;;;5092632;28;20028;-50
2022/01/01 00:28:58;;;;;;;5.28;4.28;;;10.70;99.90;;;;;;5093494;28;20035;-50
2022/01/01 00:31:25;;;;;;;5.88;4.53;;;10.80;99.90;;;;;;5075288;28;20024;-51
2022/01/01 00:33:51;;;;;;;5.00;4.15;;;10.90;99.90;;;;;;5093089;28;20056;-50
2022/01/01 00:36:16;;;;;;;5.15;4.18;;;10.90;99.90;;;;;;5093506;28;20055;-50
2022/01/01 00:38:42;;;;;;;4.78;4.07;;;10.90;99.90;;;;;;5093195;28;20062;-54
2022/01/01 00:41:08;;;;;;;4.60;4.00;;;10.80;99.90;;;;;;5093480;28;20028;-50
2022/01/01 00:43:34;;;;;;;3.85;3.45;;;10.90;99.90;;;;;;5092859;28;20026;-50
2022/01/01 00:46:00;;;;;;;5.25;4.22;;;10.90;99.90;;;;;;5093035;28;20028;-51
2022/01/01 00:48:25;;;;;;;5.05;3.78;;;10.90;99.90;;;;;;5091818;28;20039;-50
2022/01/01 00:50:51;;;;;;;6.32;4.53;;;10.90;99.90;;;;;;5093327;28;20055;-50
2022/01/01 00:53:17;;;;;;;4.75;4.00;;;10.90;99.90;;;;;;5091962;28;20028;-50
2022/01/01 00:55:42;;;;;;;5.63;4.53;;;10.80;99.90;;;;;;5092784;28;20044;-50
2022/01/01 00:58:08;;;;;;;5.95;4.90;;;10.90;99.90;;;;;;5093050;28;20020;-50
2022/01/01 01:00:34;;;;;;;6.40;4.18;;;10.80;99.90;;;;;;5092908;28;20463;-52
2022/01/01 01:02:59;;;;;;;5.60;3.90;;;10.80;99.90;;;;;;5092895;28;20035;-51
2022/01/01 01:05:26;;;;;;;6.07;4.70;;;10.90;99.90;;;;;;5091924;28;20081;-52
2022/01/01 01:07:51;;;;;;;4.93;4.00;;;10.90;99.90;;;;;;5092703;28;20133;-51
2022/01/01 01:10:17;;;;;;;4.50;3.40;;;10.90;99.90;;;;;;5092617;28;20033;-54
2022/01/01 01:12:46;;;;;;;3.92;3.53;;;10.90;99.90;;;;;;5092712;28;20455;-51
2022/01/01 01:15:17;;;;;;;5.55;4.15;;;10.90;99.90;;;;;;5092746;28;20370;-51
2022/01/01 01:17:48;;;;;;;4.30;3.63;;;10.90;99.90;;;;;;5092426;28;20024;-53
2022/01/01 01:20:15;;;;;;;10.02;4.13;;;10.90;99.90;;;;;;5092685;28;20024;-55
2022/01/01 01:22:41;;;;;;;5.57;4.97;;;10.90;99.90;;;;;;5091899;28;20028;-50
2022/01/01 01:25:08;;;;;;;7.28;4.18;;;11.00;99.90;;;;;;5074490;28;20378;-50
2022/01/01 01:27:35;;;;;;;6.43;4.00;;;10.90;99.90;;;;;;5091142;28;20107;-50
2022/01/01 01:30:03;;;;;;;4.38;3.50;;;10.90;99.90;;;;;;5074329;28;20081;-51
2022/01/01 01:32:28;;;;;;;7.28;3.63;;;11.00;99.90;;;;;;5091960;28;20123;-50
2022/01/01 01:34:54;;;;;;;3.88;3.30;;;11.00;99.90;;;;;;5092240;28;20412;-52
2022/01/01 01:37:21;;;;;;;6.03;3.35;;;11.00;99.90;;;;;;5091652;28;20425;-51
2022/01/01 01:39:47;;;;;;;8.75;4.05;;;11.10;99.90;;;;;;5091737;28;20054;-54
2022/01/01 01:42:14;;;;;;;17.17;7.90;;;11.20;99.90;;;;;;5092402;28;20483;-52
2022/01/01 01:44:43;;;;;;;8.60;5.53;;;11.10;99.90;;;;;;5091953;28;20075;-51
2022/01/01 01:47:15;;;;;;;66.38;22.13;;;11.00;99.90;;;;;;5092097;28;20028;-51
2022/01/01 01:49:42;;;;;;;18.05;7.30;;;11.00;99.90;;;;;;5092069;28;20312;-52
2022/01/01 01:52:08;;;;;;;6.00;3.72;;;11.00;99.90;;;;;;5091855;28;20020;-52
2022/01/01 01:54:35;;;;;;;7.85;5.15;;;11.00;99.90;;;;;;5091602;28;20037;-52
2022/01/01 01:57:00;;;;;;;42.83;16.17;;;11.00;99.90;;;;;;5091989;28;20032;-51
2022/01/01 01:59:26;;;;;;;5.82;4.05;;;11.00;99.90;;;;;;5091349;28;20016;-53
2022/01/01 02:01:52;;;;;;;38.70;17.73;;;11.00;99.90;;;;;;5091404;28;20115;-52
2022/01/01 02:04:18;;;;;;;109.13;42.83;;;10.90;99.90;;;;;;5091358;28;20118;-51
2022/01/01 02:06:44;;;;;;;14.68;7.57;;;10.90;99.90;;;;;;5090930;28;20099;-51
2022/01/01 02:09:12;;;;;;;8.82;5.47;;;11.00;99.90;;;;;;5091804;28;20023;-55
2022/01/01 02:11:38;;;;;;;48.67;20.75;;;11.00;99.90;;;;;;5090924;28;20097;-51
2022/01/01 02:14:13;;;;;;;9.15;5.68;;;11.00;99.90;;;;;;5091703;28;20073;-50
2022/01/01 02:16:55;;;;;;;82.25;31.17;;;11.00;99.90;;;;;;5072910;28;20031;-50
2022/01/01 02:19:30;;;;;;;7.20;4.63;;;11.10;99.90;;;;;;5091485;28;20092;-50
2022/01/01 02:22:01;;;;;;;21.00;11.00;;;11.10;99.90;;;;;;5091123;28;20472;-51
2022/01/01 02:24:26;;;;;;;38.58;16.33;;;11.20;99.90;;;;;;5090481;28;20062;-52
2022/01/01 02:26:53;;;;;;;48.67;21.02;;;11.10;99.90;;;;;;5091516;28;20109;-53
2022/01/01 02:29:20;;;;;;;9.80;4.88;;;11.10;99.90;;;;;;5072144;28;20023;-51
2022/01/01 02:31:45;;;;;;;51.45;19.75;;;11.20;99.90;;;;;;5090572;28;20398;-51
2022/01/01 02:34:12;;;;;;;20.73;10.38;;;11.10;99.90;;;;;;5091457;28;20021;-51
2022/01/01 02:36:40;;;;;;;53.42;22.48;;;11.20;99.90;;;;;;5090782;28;20360;-52
2022/01/01 02:39:11;;;;;;;20.85;10.02;;;11.10;99.90;;;;;;5090957;28;20023;-52
2022/01/01 02:41:37;;;;;;;7.10;4.38;;;11.10;99.90;;;;;;5090581;28;20058;-52
2022/01/01 02:44:03;;;;;;;13.85;9.25;;;11.10;99.90;;;;;;5091177;28;20040;-51
2022/01/01 02:46:28;;;;;;;9.65;6.00;;;11.00;99.90;;;;;;5090804;28;20332;-54
2022/01/01 02:48:54;;;;;;;5.50;4.03;;;11.00;99.90;;;;;;5090768;28;20059;-52
2022/01/01 02:51:19;;;;;;;4.15;3.55;;;11.00;99.90;;;;;;5090738;28;20047;-51
2022/01/01 02:53:45;;;;;;;4.40;3.33;;;11.10;99.90;;;;;;5090816;28;20298;-54
2022/01/01 02:56:11;;;;;;;5.28;3.25;;;11.00;99.90;;;;;;5090499;28;20044;-51
2022/01/01 02:58:41;;;;;;;9.38;4.65;;;11.00;99.90;;;;;;5090487;28;20035;-49
2022/01/01 03:01:07;;;;;;;7.13;3.70;;;11.00;99.90;;;;;;5090935;28;20023;-50
2022/01/01 03:03:33;;;;;;;6.22;3.83;;;11.00;99.90;;;;;;5090321;28;20024;-54
2022/01/01 03:05:58;;;;;;;4.72;4.10;;;11.00;99.90;;;;;;5090852;28;20086;-50
2022/01/01 03:08:24;;;;;;;7.47;4.72;;;10.90;99.90;;;;;;5090356;28;20027;-54
2022/01/01 03:10:50;;;;;;;9.82;4.43;;;10.90;99.90;;;;;;5090575;28;20027;-51
2022/01/01 03:13:17;;;;;;;5.90;4.15;;;10.90;99.90;;;;;;5072487;28;20446;-52
2022/01/01 03:15:43;;;;;;;6.10;3.65;;;10.80;99.90;;;;;;5072272;28;20034;-51
2022/01/01 03:18:09;;;;;;;3.90;3.50;;;10.90;99.90;;;;;;5090057;28;20036;-51
2022/01/01 03:20:35;;;;;;;5.40;4.43;;;10.80;99.90;;;;;;5090280;28;20473;-50
2022/01/01 03:23:01;;;;;;;5.82;4.30;;;10.80;99.90;;;;;;5090611;28;20085;-50
2022/01/01 03:25:27;;;;;;;6.22;4.60;;;10.80;99.90;;;;;;5090292;28;20024;-50
2022/01/01 03:27:52;;;;;;;4.70;3.80;;;10.80;99.90;;;;;;5090668;28;20032;-51
2022/01/01 03:30:18;;;;;;;7.22;4.53;;;10.80;99.90;;;;;;5090280;28;20059;-52
2022/01/01 03:32:44;;;;;;;5.22;4.13;;;10.80;99.90;;;;;;5090250;28;20154;-50
2022/01/01 03:35:09;;;;;;;6.72;4.53;;;10.80;99.90;;;;;;5090502;28;20035;-50
2022/01/01 03:37:35;;;;;;;5.95;4.70;;;10.80;99.90;;;;;;5090122;28;20036;-52
2022/01/01 03:40:02;;;;;;;8.27;5.05;;;10.80;99.90;;;;;;5090579;28;20024;-52
2022/01/01 03:42:27;;;;;;;6.22;4.53;;;10.70;99.90;;;;;;5090085;28;20033;-51
2022/01/01 03:44:53;;;;;;;7.13;5.15;;;10.80;99.90;;;;;;5090340;28;20028;-52
2022/01/01 03:47:19;;;;;;;6.22;4.78;;;10.80;99.90;;;;;;5089909;28;20032;-51
2022/01/01 03:49:44;;;;;;;6.93;4.80;;;10.80;99.90;;;;;;5090482;28;20028;-50
2022/01/01 03:52:10;;;;;;;5.95;4.45;;;10.80;99.90;;;;;;5089989;28;20040;-51
2022/01/01 03:54:36;;;;;;;6.10;4.57;;;10.80;99.90;;;;;;5090158;28;20142;-51
2022/01/01 03:57:01;;;;;;;6.40;4.30;;;10.80;99.90;;;;;;5089976;28;20046;-52
2022/01/01 03:59:27;;;;;;;6.50;4.13;;;10.70;99.90;;;;;;5090183;28;20077;-50
2022/01/01 04:01:54;;;;;;;8.13;4.28;;;10.80;99.90;;;;;;5089892;28;20445;-52
2022/01/01 04:04:22;;;;;;;6.53;4.72;;;10.70;99.90;;;;;;5089976;28;20477;-51
2022/01/01 04:06:48;;;;;;;6.78;4.18;;;10.70;99.90;;;;;;5071422;28;20043;-50
2022/01/01 04:09:14;;;;;;;7.10;4.72;;;10.70;99.90;;;;;;5089551;28;20024;-52
2022/01/01 04:11:40;;;;;;;6.45;4.63;;;10.70;99.90;;;;;;5087788;28;20073;-50
2022/01/01 04:14:11;;;;;;;7.60;4.88;;;10.70;99.90;;;;;;5087529;28;20089;-54
2022/01/01 04:16:36;;;;;;;6.22;4.85;;;10.70;99.90;;;;;;5087463;28;20024;-50
2022/01/01 04:19:02;;;;;;;6.40;4.88;;;10.70;99.90;;;;;;5069988;28;20013;-51
2022/01/01 04:21:28;;;;;;;6.13;4.15;;;10.60;99.90;;;;;;5087441;28;20042;-51
2022/01/01 04:23:54;;;;;;;12.73;4.53;;;10.70;99.90;;;;;;5087650;28;20444;-50
2022/01/01 04:26:19;;;;;;;7.68;4.20;;;10.60;99.90;;;;;;5088146;28;20383;-50
2022/01/01 04:28:45;;;;;;;5.45;3.92;;;10.60;99.90;;;;;;5090381;28;20476;-50
2022/01/01 04:31:13;;;;;;;7.72;4.68;;;10.60;99.90;;;;;;5093372;28;20021;-52
2022/01/01 04:33:39;;;;;;;7.05;4.18;;;10.70;99.90;;;;;;5093453;28;20433;-54
2022/01/01 04:36:04;;;;;;;7.05;3.75;;;10.60;99.90;;;;;;5093674;28;20024;-51
2022/01/01 04:40:56;;;;;;;6.40;4.25;;;10.60;99.90;;;;;;5093687;28;20016;-51
2022/01/01 04:43:22;;;;;;;4.55;3.58;;;10.50;99.90;;;;;;5093220;28;20035;-52
2022/01/01 04:45:47;;;;;;;5.22;3.90;;;10.60;99.90;;;;;;5093283;28;20081;-50
2022/01/01 04:48:13;;;;;;;5.38;3.78;;;10.60;99.90;;;;;;5093052;28;20062;-53
2022/01/01 04:50:38;;;;;;;8.68;4.45;;;10.60;99.90;;;;;;5094060;28;20063;-50
2022/01/01 04:53:04;;;;;;;4.82;3.58;;;10.60;99.90;;;;;;5094311;28;20395;-50
2022/01/01 04:55:30;;;;;;;4.78;3.80;;;10.70;99.90;;;;;;5094228;28;20094;-52
2022/01/01 04:57:55;;;;;;;5.50;4.32;;;10.70;99.90;;;;;;5094233;28;20016;-52
2022/01/01 05:00:21;;;;;;;4.05;3.42;;;10.70;99.90;;;;;;5094145;28;20030;-52
2022/01/01 05:02:47;;;;;;;3.72;3.35;;;10.80;99.90;;;;;;5094223;28;20371;-60
2022/01/01 05:05:12;;;;;;;5.55;4.03;;;10.80;99.90;;;;;;5094024;28;20573;-54
2022/01/01 05:07:38;;;;;;;8.38;6.82;;;10.80;99.90;;;;;;5093424;28;20042;-55
2022/01/01 05:10:05;;;;;;;6.10;3.53;;;10.70;99.90;;;;;;5092866;28;20091;-57
2022/01/01 05:12:31;;;;;;;12.27;8.13;;;10.70;99.90;;;;;;5092327;28;20032;-54
2022/01/01 05:14:56;;;;;;;7.78;5.68;;;10.70;99.90;;;;;;5092829;28;20036;-57
2022/01/01 05:17:22;;;;;;;13.75;7.47;;;10.70;99.90;;;;;;5091576;28;20026;-56
2022/01/01 05:19:47;;;;;;;15.20;6.22;;;10.60;99.90;;;;;;5092852;28;20028;-53
2022/01/01 05:22:13;;;;;;;5.65;4.18;;;10.60;99.90;;;;;;5092389;28;20490;-55
2022/01/01 05:24:39;;;;;;;7.03;3.70;;;10.70;99.90;;;;;;5092822;28;20383;-56
2022/01/01 05:27:04;;;;;;;4.78;3.38;;;10.70;99.90;;;;;;5092689;28;20056;-53
2022/01/01 05:29:30;;;;;;;6.85;3.50;;;10.80;99.90;;;;;;5092049;28;20081;-55
2022/01/01 05:31:56;;;;;;;7.78;4.43;;;10.80;99.90;;;;;;5092166;28;20023;-55
2022/01/01 05:34:21;;;;;;;33.60;15.32;;;10.80;99.90;;;;;;5093198;28;20020;-56
2022/01/01 05:36:47;;;;;;;5.85;3.47;;;10.70;99.90;;;;;;5093521;28;20443;-52
2022/01/01 05:39:12;;;;;;;4.32;3.47;;;10.70;99.90;;;;;;5075369;28;20024;-55
2022/01/01 05:41:38;;;;;;;108.40;37.60;;;10.80;99.90;;;;;;5092953;28;20035;-55
2022/01/01 05:44:04;;;;;;;26.83;11.15;;;10.70;99.90;;;;;;5071623;28;20016;-56
2022/01/01 05:46:31;;;;;;;5.30;3.67;;;10.80;99.90;;;;;;5072726;28;20043;-56
2022/01/01 05:48:57;;;;;;;13.73;7.05;;;10.70;99.90;;;;;;5073248;28;20017;-56
2022/01/01 05:51:23;;;;;;;31.35;11.80;;;10.70;99.90;;;;;;5073011;28;20027;-55
2022/01/01 05:53:49;;;;;;;27.33;11.23;;;10.70;99.90;;;;;;5072835;28;20620;-55
2022/01/01 05:56:14;;;;;;;3.90;3.35;;;10.70;99.90;;;;;;5072894;28;20505;-56
2022/01/01 05:58:40;;;;;;;9.73;4.05;;;10.70;99.90;;;;;;5086231;28;20036;-53
2022/01/01 06:01:05;;;;;;;5.35;4.03;;;10.70;99.90;;;;;;5093394;28;20016;-55
2022/01/01 06:03:31;;;;;;;6.63;4.80;;;10.70;99.90;;;;;;5074776;28;20448;-53
2022/01/01 06:05:57;;;;;;;5.40;3.28;;;10.70;99.90;;;;;;5093080;28;20024;-53
2022/01/01 06:08:28;;;;;;;25.77;9.10;;;10.70;99.90;;;;;;5074651;28;20540;-55
2022/01/01 06:10:56;;;;;;;7.03;4.63;;;10.60;99.90;;;;;;5092929;28;20020;-55
2022/01/01 06:13:22;;;;;;;6.85;3.95;;;10.60;99.90;;;;;;5092267;28;20116;-54
2022/01/01 06:15:48;;;;;;;4.30;3.85;;;10.60;99.90;;;;;;5092843;28;20103;-55
2022/01/01 06:18:13;;;;;;;4.53;4.07;;;10.60;99.90;;;;;;5092913;28;20423;-56
2022/01/01 06:20:39;;;;;;;5.68;4.35;;;10.60;99.90;;;;;;5092639;28;20056;-56
2022/01/01 06:23:06;;;;;;;32.92;15.43;;;10.60;99.90;;;;;;5092857;28;20039;-55
2022/01/01 06:25:34;;;;;;;4.47;4.07;;;10.50;99.90;;;;;;5092458;28;20384;-55
2022/01/01 06:27:59;;;;;;;6.05;4.80;;;10.60;99.90;;;;;;5062004;28;20040;-55
2022/01/01 06:30:25;;;;;;;7.13;4.75;;;10.60;99.90;;;;;;5072428;28;20032;-52
2022/01/01 06:32:52;;;;;;;7.82;3.67;;;10.60;99.90;;;;;;5072099;28;20077;-52
2022/01/01 06:35:17;;;;;;;8.80;5.70;;;10.60;99.90;;;;;;5072227;28;20025;-54
2022/01/01 06:37:43;;;;;;;3.63;3.30;;;10.50;99.90;;;;;;5072027;28;20074;-55
2022/01/01 06:40:09;;;;;;;3.85;3.42;;;10.50;99.90;;;;;;5072158;28;20023;-53
2022/01/01 06:42:35;;;;;;;5.53;3.38;;;10.60;99.90;;;;;;5082761;28;20050;-56
2022/01/01 06:45:01;;;;;;;7.78;3.88;;;10.50;99.90;;;;;;5092549;28;20024;-54
2022/01/01 06:47:26;;;;;;;4.00;3.45;;;10.50;99.90;;;;;;5091847;28;20068;-55
2022/01/01 06:49:52;;;;;;;7.55;4.78;;;10.50;99.90;;;;;;5092051;28;20157;-55
2022/01/01 06:52:17;;;;;;;5.10;3.70;;;10.40;99.90;;;;;;5090940;28;20107;-54
2022/01/01 06:54:43;;;;;;;6.25;3.92;;;10.40;99.90;;;;;;5091848;28;20047;-55
2022/01/01 06:57:08;;;;;;;4.95;4.35;;;10.40;99.90;;;;;;5091897;28;20024;-56
2022/01/01 06:59:34;;;;;;;5.88;4.43;;;10.40;99.90;;;;;;5091683;28;20024;-55
2022/01/01 07:02:00;;;;;;;5.18;3.95;;;10.40;99.90;;;;;;5092003;28;20106;-55
2022/01/01 07:04:25;;;;;;;7.15;6.40;;;10.40;99.90;;;;;;5091680;28;20028;-55
2022/01/01 07:06:51;;;;;;;6.88;5.60;;;10.40;99.90;;;;;;5091986;28;20120;-55
2022/01/01 07:09:17;;;;;;;5.63;3.70;;;10.30;99.90;;;;;;5091711;28;20020;-56
2022/01/01 07:11:42;;;;;;;5.50;4.35;;;10.30;99.90;;;;;;5091407;28;20474;-54
2022/01/01 07:14:09;;;;;;;7.25;4.50;;;10.40;99.90;;;;;;5091363;28;20359;-54
2022/01/01 07:16:35;;;;;;;5.90;4.50;;;10.40;99.90;;;;;;5091424;28;20055;-53
2022/01/01 07:19:01;;;;;;;4.80;4.30;;;10.40;99.90;;;;;;5091542;28;20394;-52
2022/01/01 07:21:27;;;;;;;5.55;3.95;;;10.30;99.90;;;;;;5091531;28;20052;-55
2022/01/01 07:23:52;;;;;;;5.03;3.50;;;10.30;99.90;;;;;;5091403;28;20020;-54
2022/01/01 07:26:18;;;;;;;5.28;4.57;;;10.30;99.90;;;;;;5091402;28;20024;-56
2022/01/01 07:28:44;;;;;;;5.32;3.40;;;10.30;99.90;;;;;;5091129;28;20032;-56
2022/01/01 07:31:10;;;;;;;6.22;4.05;;;10.30;99.90;;;;;;5073346;28;20479;-55
2022/01/01 07:33:35;;;;;;;4.75;3.42;;;10.30;99.90;;;;;;5091244;28;20111;-53
2022/01/01 07:36:01;;;;;;;5.13;3.88;;;10.20;99.90;;;;;;5091463;28;20095;-55
2022/01/01 07:38:27;;;;;;;3.50;3.00;;;10.30;99.90;;;;;;5091209;28;20031;-56
2022/01/01 07:40:54;;;;;;;5.30;3.78;;;10.40;99.90;;;;;;5091164;28;20032;-54
2022/01/01 07:43:20;;;;;;;4.40;2.83;;;10.50;99.90;;;;;;5091393;28;20024;-56
2022/01/01 07:45:46;;;;;;;9.73;6.53;;;10.40;99.90;;;;;;5091381;28;20055;-52
2022/01/01 07:48:11;;;;;;;51.15;24.73;;;10.40;99.90;;;;;;5091533;28;20383;-53
2022/01/01 07:50:40;;;;;;;33.00;13.43;;;10.40;99.90;;;;;;5090740;28;20028;-54
2022/01/01 07:53:08;;;;;;;16.58;8.93;;;10.40;99.90;;;;;;5091322;28;20024;-55
2022/01/01 07:55:33;;;;;;;4.13;3.75;;;10.50;99.90;;;;;;5090976;28;20036;-54
2022/01/01 07:57:59;;;;;;;4.35;3.60;;;10.60;99.90;;;;;;5091242;28;20134;-53
2022/01/01 08:00:25;;;;;;;7.88;5.22;;;10.50;99.90;;;;;;5090778;28;20020;-54
2022/01/01 08:02:50;;;;;;;6.80;3.47;;;10.50;99.90;;;;;;5091646;28;20430;-56
2022/01/01 08:05:16;;;;;;;3.88;3.10;;;10.60;99.90;;;;;;5095209;28;20495;-55
2022/01/01 08:07:43;;;;;;;5.35;3.15;;;10.70;99.90;;;;;;5095037;28;20052;-54
2022/01/01 08:10:10;;;;;;;3.70;3.30;;;10.70;99.90;;;;;;5095397;28;20035;-55
2022/01/01 08:12:36;;;;;;;3.47;3.00;;;10.80;99.90;;;;;;5094867;28;20032;-54
2022/01/01 08:15:05;;;;;;;4.50;3.40;;;10.80;99.90;;;;;;5095195;28;20681;-55
2022/01/01 08:17:31;;;;;;;9.00;3.05;;;10.80;99.90;;;;;;5094479;28;20028;-54
2022/01/01 08:19:57;;;;;;;3.40;2.92;;;10.90;99.90;;;;;;5095030;28;20115;-53
2022/01/01 08:22:24;;;;;;;4.53;3.53;;;10.90;99.90;;;;;;5094551;28;20115;-54
2022/01/01 08:24:49;;;;;;;3.20;2.90;;;11.00;99.90;;;;;;5076541;28;20024;-55
2022/01/01 08:27:15;;;;;;;4.40;3.33;;;11.00;99.90;;;;;;5094949;28;20101;-55
2022/01/01 08:29:41;;;;;;;7.30;3.42;;;11.10;99.90;;;;;;5094631;28;20055;-53
2022/01/01 08:35:33;;;;;;;5.95;4.55;;;11.20;99.90;;;;;;5094545;28;20387;-56
2022/01/01 08:38:35;;;;;;;4.35;3.40;;;11.30;99.90;;;;;;5094130;28;20028;-53
2022/01/01 08:41:01;;;;;;;5.53;4.43;;;11.30;99.90;;;;;;5094530;28;20016;-56
2022/01/01 08:43:27;;;;;;;6.13;4.80;;;11.30;99.90;;;;;;5094318;28;20081;-55
2022/01/01 08:45:53;;;;;;;5.43;3.85;;;11.40;99.90;;;;;;5094439;28;20022;-52
2022/01/01 08:48:19;;;;;;;4.55;3.65;;;11.50;99.90;;;;;;5074953;28;20494;-55
2022/01/01 08:50:44;;;;;;;5.80;4.07;;;11.50;99.90;;;;;;5094325;28;20024;-54
2022/01/01 08:53:10;;;;;;;5.13;3.78;;;11.50;99.90;;;;;;5094546;28;20024;-53
2022/01/01 08:55:36;;;;;;;3.85;3.10;;;11.60;99.90;;;;;;5093619;28;20089;-57
2022/01/01 08:58:01;;;;;;;5.45;3.75;;;11.60;99.90;;;;;;5094117;28;20020;-53
2022/01/01 09:00:27;;;;;;;5.78;3.65;;;11.70;99.90;;;;;;5093255;28;20498;-53
2022/01/01 09:02:53;;;;;;;4.03;3.35;;;11.80;99.90;;;;;;5093893;28;20035;-54
2022/01/01 09:05:18;;;;;;;7.35;3.38;;;11.90;99.90;;;;;;5093748;28;20024;-55
2022/01/01 09:07:44;;;;;;;4.47;3.17;;;12.00;99.90;;;;;;5093711;28;20024;-57
2022/01/01 09:10:10;;;;;;;6.90;3.20;;;11.90;99.90;;;;;;5094228;28;20576;-57
2022/01/01 09:12:36;;;;;;;6.32;2.95;;;11.90;99.90;;;;;;5093753;28;20418;-57
2022/01/01 09:15:02;;;;;;;3.75;3.10;;;11.90;99.90;;;;;;5092964;28;20035;-57
2022/01/01 09:17:27;;;;;;;6.25;3.35;;;11.90;99.90;;;;;;5093883;28;20031;-56
2022/01/01 09:19:53;;;;;;;3.42;3.13;;;12.00;99.90;;;;;;5093712;28;20507;-57
2022/01/01 09:25:41;;;;;;;8.13;5.78;;;12.00;99.90;;;;;;5093391;28;20035;-56
2022/01/01 09:28:07;;;;;;;9.57;4.90;;;12.10;99.90;;;;;;5092948;28;20345;-52
2022/01/01 09:30:33;;;;;;;4.45;3.20;;;12.30;99.90;;;;;;5092910;28;20020;-55
2022/01/01 09:32:58;;;;;;;3.22;2.33;;;12.50;99.90;;;;;;5093217;28;20047;-57
2022/01/01 09:35:24;;;;;;;5.43;3.58;;;13.40;99.90;;;;;;5092793;28;20057;-53
2022/01/01 09:37:50;;;;;;;33.15;15.75;;;14.30;99.90;;;;;;5093146;28;20038;-57
2022/01/01 09:40:15;;;;;;;39.53;16.55;;;15.00;99.90;;;;;;5093241;28;20022;-56
2022/01/01 09:42:42;;;;;;;6.38;3.47;;;14.90;99.90;;;;;;5092658;28;20395;-57
2022/01/01 09:45:09;;;;;;;6.57;2.90;;;16.10;99.90;;;;;;5092937;28;20028;-56
2022/01/01 09:47:36;;;;;;;4.82;3.47;;;17.50;96.30;;;;;;5092152;28;20043;-57
2022/01/01 09:50:05;;;;;;;21.05;8.68;;;18.10;94.40;;;;;;5092958;28;20429;-57
2022/01/01 09:52:31;;;;;;;15.07;7.18;;;19.00;92.50;;;;;;5092794;28;20393;-57
2022/01/01 09:54:56;;;;;;;5.88;2.90;;;19.60;89.20;;;;;;5092640;28;20040;-56
2022/01/01 09:57:22;;;;;;;4.47;3.90;;;19.70;86.80;;;;;;5092575;28;20028;-55
2022/01/01 09:59:48;;;;;;;14.23;7.78;;;19.50;86.90;;;;;;5092922;28;20030;-54
2022/01/01 10:02:14;;;;;;;18.70;10.48;;;18.60;87.50;;;;;;5092742;28;20103;-55
2022/01/01 10:04:45;;;;;;;7.47;5.93;;;17.70;91.20;;;;;;5087763;28;20647;-56
2022/01/01 10:07:12;;;;;;;18.80;9.55;;;16.60;93.40;;;;;;5072396;28;20020;-57
2022/01/01 10:09:38;;;;;;;3.13;1.77;;;15.60;96.00;;;;;;5077655;28;20508;-56
2022/01/01 10:12:06;;;;;;;6.55;5.63;;;14.90;99.40;;;;;;5092498;28;20028;-55
2022/01/01 10:14:40;;;;;;;12.90;8.05;;;14.20;99.90;;;;;;5092386;28;20020;-58
2022/01/01 10:17:23;;;;;;;3.05;2.20;;;13.70;99.90;;;;;;5092366;28;20016;-54
2022/01/01 10:19:51;;;;;;;4.15;1.75;;;13.60;99.90;;;;;;5092531;28;20503;-57
2022/01/01 10:22:23;;;;;;;8.68;5.32;;;13.40;99.90;;;;;;5092098;28;20032;-55
2022/01/01 10:27:58;;;;;;;2.45;1.98;;;12.90;99.90;;;;;;5092122;28;20047;-56
2022/01/01 10:30:32;;;;;;;6.13;4.47;;;13.00;99.90;;;;;;5091615;28;20034;-56
2022/01/01 10:33:05;;;;;;;3.65;3.00;;;13.00;99.90;;;;;;5090671;28;20039;-56
2022/01/01 10:35:44;;;;;;;4.00;3.42;;;12.80;99.90;;;;;;5091647;28;20089;-55
2022/01/01 10:38:27;;;;;;;1.60;1.50;;;12.80;99.90;;;;;;5091425;28;20022;-57
2022/01/01 10:41:08;;;;;;;1.52;1.42;;;12.80;99.90;;;;;;5089124;28;20069;-57
2022/01/01 10:43:39;;;;;;;1.75;1.65;;;12.90;99.90;;;;;;5071179;28;20025;-57
2022/01/01 10:46:10;;;;;;;9.55;1.60;;;12.80;99.90;;;;;;5071578;28;20029;-58
2022/01/01 10:51:02;;;;;;;1.20;1.20;;;12.90;99.90;;;;;;5072331;28;20028;-56
2022/01/01 10:53:28;;;;;;;1.73;1.45;;;13.20;99.90;;;;;;5091389;28;20177;-58
2022/01/01 10:55:59;;;;;;;0.98;0.98;;;13.10;99.90;;;;;;5073272;28;20473;-57
2022/01/01 10:58:34;;;;;;;1.27;1.20;;;13.40;99.90;;;;;;5091354;28;20173;-57
2022/01/01 11:01:10;;;;;;;1.75;1.30;;;13.40;99.90;;;;;;5091775;28;20054;-57
2022/01/01 11:03:41;;;;;;;1.00;1.00;;;13.20;99.90;;;;;;5091742;28;20113;-57
2022/01/01 11:06:17;;;;;;;4.43;1.10;;;13.20;99.90;;;;;;5091881;28;20032;-57
2022/01/01 11:08:45;;;;;;;1.20;1.20;;;13.20;99.90;;;;;;5091233;28;20023;-58
2022/01/01 11:11:13;;;;;;;1.42;1.10;;;13.20;99.90;;;;;;5091674;28;20055;-58
2022/01/01 11:13:39;;;;;;;1.88;1.27;;;13.10;99.90;;;;;;5073223;28;20020;-56
2022/01/01 11:16:06;;;;;;;2.75;1.13;;;13.30;99.90;;;;;;5091617;28;20468;-58
2022/01/01 11:18:33;;;;;;;1.27;1.00;;;13.60;99.90;;;;;;5091110;28;20035;-57
2022/01/01 11:21:03;;;;;;;2.67;2.17;;;14.30;99.90;;;;;;5091914;28;20027;-57
2022/01/01 11:23:30;;;;;;;1.30;1.20;;;14.50;99.90;;;;;;5091576;28;20028;-58
2022/01/01 11:25:56;;;;;;;1.35;1.25;;;14.50;99.90;;;;;;5091514;28;20086;-57
2022/01/01 11:28:22;;;;;;;2.55;2.13;;;15.00;99.90;;;;;;5091514;28;20047;-57
2022/01/01 11:30:59;;;;;;;6.50;3.97;;;14.80;99.90;;;;;;5091619;28;20024;-57
2022/01/01 11:33:44;;;;;;;2.53;1.70;;;14.30;99.90;;;;;;5090611;28;20032;-56
2022/01/01 11:36:23;;;;;;;6.70;4.25;;;13.90;99.90;;;;;;5078054;28;20108;-54
2022/01/01 11:38:49;;;;;;;6.80;2.88;;;14.00;99.90;;;;;;5084882;28;20421;-55
2022/01/01 11:41:19;;;;;;;4.50;3.03;;;13.50;99.90;;;;;;5085897;28;20028;-56
2022/01/01 11:43:46;;;;;;;2.13;1.98;;;13.20;99.90;;;;;;5087350;28;20360;-54
2022/01/01 11:46:29;;;;;;;2.10;1.90;;;13.20;99.90;;;;;;5086854;28;20417;-55
2022/01/01 11:49:03;;;;;;;1.83;1.73;;;13.20;99.90;;;;;;5087021;28;20024;-53
2022/01/01 11:51:32;;;;;;;;;;;13.40;99.90;;;;;;5087189;28;20043;-56
2022/01/01 11:54:20;;;;;;;3.03;1.73;;;13.40;99.90;;;;;;5086896;28;19938;-55
2022/01/01 11:56:51;;;;;;;2.78;2.47;;;13.40;99.90;;;;;;5086892;28;20036;-56
2022/01/01 11:59:33;;;;;;;6.95;5.95;;;13.60;99.90;;;;;;5086559;28;20028;-55
2022/01/01 12:02:18;;;;;;;1.77;1.58;;;14.20;99.90;;;;;;5087236;28;20020;-54
2022/01/01 12:04:51;;;;;;;1.70;1.60;;;14.40;99.90;;;;;;5087443;28;20028;-56
2022/01/01 12:07:20;;;;;;;1.52;1.42;;;14.30;99.90;;;;;;5086518;28;20039;-56
2022/01/01 12:09:58;;;;;;;2.80;2.30;;;14.30;99.90;;;;;;5087032;28;20059;-56
2022/01/01 12:12:45;;;;;;;2.40;2.20;;;14.10;99.90;;;;;;5086748;28;20062;-55
2022/01/01 12:15:22;;;;;;;14.07;5.72;;;14.50;99.90;;;;;;5086509;28;20394;-57
2022/01/01 12:18:01;;;;;;;13.98;5.15;;;14.80;99.90;;;;;;5087331;28;20016;-52
2022/01/01 12:20:38;;;;;;;2.15;1.67;;;15.10;99.90;;;;;;5087247;28;20033;-56
2022/01/01 12:23:11;;;;;;;2.35;2.13;;;14.50;99.90;;;;;;5086429;28;20036;-56
2022/01/01 12:25:38;;;;;;;4.87;4.30;;;14.70;99.90;;;;;;5086035;28;20619;-56
2022/01/01 12:28:07;;;;;;;2.97;2.05;;;15.60;99.90;;;;;;5086291;28;20669;-53
2022/01/01 12:30:39;;;;;;;13.77;6.03;;;16.50;99.40;;;;;;5086909;28;20023;-55
2022/01/01 12:33:05;;;;;;;15.63;4.30;;;18.20;96.30;;;;;;5085707;28;20035;-57
2022/01/01 12:36:05;;;;;;;2.35;1.23;;;19.10;92.10;;;;;;5086745;28;20415;-57
2022/01/01 12:38:31;;;;;;;3.53;1.40;;;19.60;88.60;;;;;;5053036;28;20032;-56
2022/01/01 12:40:59;;;;;;;2.25;1.20;;;18.90;88.60;;;;;;5086028;28;20535;-56
2022/01/01 12:43:27;;;;;;;1.40;1.30;;;18.70;88.40;;;;;;5086204;28;20062;-53
2022/01/01 12:45:54;;;;;;;2.65;1.65;;;19.10;87.00;;;;;;5087259;28;20663;-54
2022/01/01 12:48:29;;;;;;;5.55;1.80;;;19.60;86.90;;;;;;5086441;28;20040;-54
2022/01/01 12:51:04;;;;;;;6.68;1.95;;;18.60;85.70;;;;;;5081919;28;20016;-54
2022/01/01 12:53:31;;;;;;;4.95;1.75;;;18.80;86.60;;;;;;5082855;28;20024;-56
2022/01/01 12:56:02;;;;;;;2.60;2.40;;;18.00;90.00;;;;;;5083503;28;20051;-55
2022/01/01 12:58:51;;;;;;;5.00;2.95;;;17.30;91.60;;;;;;5065051;28;20066;-56
2022/01/01 13:01:27;;;;;;;3.33;3.03;;;16.80;92.40;;;;;;5083668;28;20038;-55
2022/01/01 13:03:59;;;;;;;2.88;2.35;;;17.40;92.00;;;;;;5094282;28;20081;-55